Mierlo, Netherlands
Current Conditions -  °F | °C
As of 9:29 AM on Thursday 27 Nov 2014 (Local Time) from EHEH Reporting Station
Haze Haze  
Wind Chill: 41°   Ceiling: 6200
Heat Index: 45°   Visibility: 6mi
Dew Point: 41°   Wind: 7mph
Humidity: 87%   Direction: 130°SE
Pressure: 29.77"   Gusts: NA
Location:  51.44°N, 5.62°E
Report Text: EHEH 270829Z AUTO 13006KT 9000 BR SCT015 BKN062 BKN120 07/05 Q1008 WHT 13007KT 9999 FEW016 BKN060 TEMPO SCT012
Loading
Personal Weather Stations






























Interactive Weather Map New forecast layout! Learn more

10-Day Weather Forecast

Advertisements
Track Severe Weather on mobile